sensor_id;sensor_type;location;lat;lon;timestamp;P1;durP1;ratioP1;P2;durP2;ratioP2
16760;SDS011;8498;52.516;13.790;2024-03-23T00:57:26;8.17;;;2.37;;
16760;SDS011;8498;52.516;13.790;2024-03-23T01:02:47;6.20;;;1.80;;
16760;SDS011;8498;52.516;13.790;2024-03-23T01:08:08;11.10;;;2.67;;
16760;SDS011;8498;52.516;13.790;2024-03-23T01:13:29;13.37;;;2.80;;
16760;SDS011;8498;52.516;13.790;2024-03-23T01:18:51;12.40;;;2.60;;
16760;SDS011;8498;52.516;13.790;2024-03-23T01:24:12;12.10;;;2.83;;
16760;SDS011;8498;52.516;13.790;2024-03-23T01:29:33;10.27;;;2.80;;
16760;SDS011;8498;52.516;13.790;2024-03-23T01:34:54;9.20;;;2.43;;
16760;SDS011;8498;52.516;13.790;2024-03-23T01:40:18;11.50;;;2.70;;
16760;SDS011;8498;52.516;13.790;2024-03-23T01:45:50;14.50;;;2.80;;
16760;SDS011;8498;52.516;13.790;2024-03-23T01:51:14;18.07;;;2.97;;
16760;SDS011;8498;52.516;13.790;2024-03-23T01:56:35;6.23;;;2.27;;
16760;SDS011;8498;52.516;13.790;2024-03-23T02:01:57;10.43;;;3.10;;
16760;SDS011;8498;52.516;13.790;2024-03-23T02:07:19;11.60;;;2.83;;
16760;SDS011;8498;52.516;13.790;2024-03-23T02:12:40;12.00;;;2.80;;
16760;SDS011;8498;52.516;13.790;2024-03-23T02:18:01;10.37;;;2.30;;
16760;SDS011;8498;52.516;13.790;2024-03-23T02:23:23;12.47;;;2.57;;
16760;SDS011;8498;52.516;13.790;2024-03-23T02:28:45;10.97;;;2.50;;
16760;SDS011;8498;52.516;13.790;2024-03-23T02:34:06;12.53;;;2.83;;
16760;SDS011;8498;52.516;13.790;2024-03-23T02:39:27;14.03;;;2.77;;
16760;SDS011;8498;52.516;13.790;2024-03-23T02:44:48;9.47;;;3.00;;
16760;SDS011;8498;52.516;13.790;2024-03-23T02:50:10;14.13;;;3.13;;
16760;SDS011;8498;52.516;13.790;2024-03-23T02:55:31;14.00;;;3.30;;
16760;SDS011;8498;52.516;13.790;2024-03-23T03:00:52;9.70;;;2.77;;
16760;SDS011;8498;52.516;13.790;2024-03-23T03:06:22;6.57;;;2.47;;
16760;SDS011;8498;52.516;13.790;2024-03-23T03:11:44;12.10;;;2.43;;
16760;SDS011;8498;52.516;13.790;2024-03-23T03:17:05;10.23;;;2.70;;
16760;SDS011;8498;52.516;13.790;2024-03-23T03:22:26;13.63;;;3.13;;
16760;SDS011;8498;52.516;13.790;2024-03-23T03:27:47;15.60;;;2.73;;
16760;SDS011;8498;52.516;13.790;2024-03-23T03:33:09;12.33;;;2.70;;
16760;SDS011;8498;52.516;13.790;2024-03-23T03:38:30;9.37;;;2.73;;
16760;SDS011;8498;52.516;13.790;2024-03-23T03:43:51;12.17;;;2.40;;
16760;SDS011;8498;52.516;13.790;2024-03-23T03:49:12;7.43;;;2.50;;
16760;SDS011;8498;52.516;13.790;2024-03-23T03:54:33;10.30;;;3.10;;
16760;SDS011;8498;52.516;13.790;2024-03-23T03:59:54;13.63;;;2.77;;
16760;SDS011;8498;52.516;13.790;2024-03-23T04:05:16;12.10;;;3.20;;
16760;SDS011;8498;52.516;13.790;2024-03-23T04:10:37;10.23;;;3.00;;
16760;SDS011;8498;52.516;13.790;2024-03-23T04:15:58;15.63;;;3.27;;
16760;SDS011;8498;52.516;13.790;2024-03-23T04:21:20;14.67;;;4.53;;
16760;SDS011;8498;52.516;13.790;2024-03-23T04:26:42;12.80;;;2.87;;
16760;SDS011;8498;52.516;13.790;2024-03-23T04:32:04;14.53;;;3.20;;
16760;SDS011;8498;52.516;13.790;2024-03-23T04:37:26;10.40;;;2.77;;
16760;SDS011;8498;52.516;13.790;2024-03-23T04:42:47;11.47;;;2.77;;
16760;SDS011;8498;52.516;13.790;2024-03-23T04:48:09;14.13;;;3.60;;
16760;SDS011;8498;52.516;13.790;2024-03-23T04:53:30;14.13;;;2.97;;
16760;SDS011;8498;52.516;13.790;2024-03-23T04:58:51;12.20;;;2.97;;
16760;SDS011;8498;52.516;13.790;2024-03-23T05:04:13;9.67;;;2.60;;
16760;SDS011;8498;52.516;13.790;2024-03-23T05:09:34;8.37;;;2.73;;
16760;SDS011;8498;52.516;13.790;2024-03-23T05:14:55;9.33;;;2.90;;
16760;SDS011;8498;52.516;13.790;2024-03-23T05:20:16;9.27;;;2.13;;
16760;SDS011;8498;52.516;13.790;2024-03-23T05:25:39;11.57;;;2.73;;
16760;SDS011;8498;52.516;13.790;2024-03-23T05:31:01;10.67;;;2.60;;
16760;SDS011;8498;52.516;13.790;2024-03-23T05:36:22;8.43;;;2.23;;
16760;SDS011;8498;52.516;13.790;2024-03-23T05:41:47;6.07;;;1.90;;
16760;SDS011;8498;52.516;13.790;2024-03-23T05:47:08;8.03;;;3.03;;
16760;SDS011;8498;52.516;13.790;2024-03-23T05:52:29;5.93;;;1.80;;
16760;SDS011;8498;52.516;13.790;2024-03-23T05:57:51;5.87;;;3.60;;
16760;SDS011;8498;52.516;13.790;2024-03-23T06:03:12;6.70;;;2.00;;
16760;SDS011;8498;52.516;13.790;2024-03-23T06:08:33;8.03;;;1.87;;
16760;SDS011;8498;52.516;13.790;2024-03-23T06:13:55;7.30;;;2.23;;
16760;SDS011;8498;52.516;13.790;2024-03-23T06:19:16;5.40;;;2.20;;
16760;SDS011;8498;52.516;13.790;2024-03-23T06:24:37;5.37;;;1.70;;
16760;SDS011;8498;52.516;13.790;2024-03-23T06:29:59;5.50;;;2.10;;
16760;SDS011;8498;52.516;13.790;2024-03-23T06:35:21;2.23;;;1.67;;
16760;SDS011;8498;52.516;13.790;2024-03-23T06:40:42;4.60;;;1.73;;
16760;SDS011;8498;52.516;13.790;2024-03-23T06:46:03;7.07;;;1.67;;
16760;SDS011;8498;52.516;13.790;2024-03-23T06:51:25;4.73;;;1.73;;
16760;SDS011;8498;52.516;13.790;2024-03-23T06:56:46;6.57;;;2.20;;
16760;SDS011;8498;52.516;13.790;2024-03-23T07:02:08;9.63;;;2.47;;
16760;SDS011;8498;52.516;13.790;2024-03-23T07:07:29;9.67;;;2.50;;
16760;SDS011;8498;52.516;13.790;2024-03-23T07:12:50;7.73;;;2.17;;
16760;SDS011;8498;52.516;13.790;2024-03-23T07:18:12;3.10;;;1.90;;
16760;SDS011;8498;52.516;13.790;2024-03-23T07:23:33;6.80;;;1.97;;
16760;SDS011;8498;52.516;13.790;2024-03-23T07:28:55;3.57;;;1.93;;
16760;SDS011;8498;52.516;13.790;2024-03-23T07:34:16;6.70;;;2.00;;
16760;SDS011;8498;52.516;13.790;2024-03-23T07:39:37;5.67;;;2.40;;
16760;SDS011;8498;52.516;13.790;2024-03-23T07:44:58;7.40;;;2.20;;
16760;SDS011;8498;52.516;13.790;2024-03-23T07:50:19;9.47;;;2.00;;
16760;SDS011;8498;52.516;13.790;2024-03-23T07:55:40;10.77;;;1.80;;
16760;SDS011;8498;52.516;13.790;2024-03-23T08:01:05;5.60;;;2.10;;
16760;SDS011;8498;52.516;13.790;2024-03-23T08:06:31;7.30;;;2.33;;
16760;SDS011;8498;52.516;13.790;2024-03-23T08:11:51;7.90;;;1.90;;
16760;SDS011;8498;52.516;13.790;2024-03-23T08:17:13;8.73;;;2.27;;
16760;SDS011;8498;52.516;13.790;2024-03-23T08:22:34;7.97;;;2.37;;
16760;SDS011;8498;52.516;13.790;2024-03-23T08:27:55;7.00;;;2.37;;
16760;SDS011;8498;52.516;13.790;2024-03-23T08:33:17;8.40;;;2.07;;
16760;SDS011;8498;52.516;13.790;2024-03-23T08:38:38;6.40;;;2.20;;
16760;SDS011;8498;52.516;13.790;2024-03-23T08:43:59;4.30;;;2.50;;
16760;SDS011;8498;52.516;13.790;2024-03-23T08:49:22;3.70;;;1.93;;
16760;SDS011;8498;52.516;13.790;2024-03-23T08:54:43;1.33;;;1.20;;
16760;SDS011;8498;52.516;13.790;2024-03-23T09:00:04;1.93;;;1.40;;
16760;SDS011;8498;52.516;13.790;2024-03-23T09:05:30;1.03;;;1.03;;
16760;SDS011;8498;52.516;13.790;2024-03-23T09:10:56;2.03;;;1.07;;
16760;SDS011;8498;52.516;13.790;2024-03-23T09:16:18;2.87;;;1.23;;
16760;SDS011;8498;52.516;13.790;2024-03-23T09:21:39;1.83;;;1.00;;
16760;SDS011;8498;52.516;13.790;2024-03-23T09:27:01;2.50;;;1.10;;
16760;SDS011;8498;52.516;13.790;2024-03-23T09:32:22;2.80;;;1.27;;
16760;SDS011;8498;52.516;13.790;2024-03-23T09:37:43;4.63;;;1.70;;
16760;SDS011;8498;52.516;13.790;2024-03-23T09:43:08;3.37;;;1.57;;
16760;SDS011;8498;52.516;13.790;2024-03-23T09:48:30;2.60;;;1.37;;
16760;SDS011;8498;52.516;13.790;2024-03-23T09:53:51;1.33;;;0.80;;
16760;SDS011;8498;52.516;13.790;2024-03-23T09:59:14;1.20;;;1.10;;
16760;SDS011;8498;52.516;13.790;2024-03-23T10:04:35;2.10;;;0.90;;
16760;SDS011;8498;52.516;13.790;2024-03-23T10:10:08;2.67;;;1.00;;
16760;SDS011;8498;52.516;13.790;2024-03-23T10:15:33;3.23;;;1.13;;
16760;SDS011;8498;52.516;13.790;2024-03-23T10:26:26;2.70;;;1.37;;
16760;SDS011;8498;52.516;13.790;2024-03-23T10:31:48;3.63;;;1.30;;
16760;SDS011;8498;52.516;13.790;2024-03-23T10:37:10;2.47;;;1.40;;
16760;SDS011;8498;52.516;13.790;2024-03-23T10:42:32;1.40;;;1.20;;
16760;SDS011;8498;52.516;13.790;2024-03-23T10:47:54;2.87;;;1.30;;
16760;SDS011;8498;52.516;13.790;2024-03-23T10:53:15;8.80;;;1.60;;
16760;SDS011;8498;52.516;13.790;2024-03-23T10:58:42;7.03;;;1.40;;
16760;SDS011;8498;52.516;13.790;2024-03-23T11:04:07;4.50;;;2.07;;
16760;SDS011;8498;52.516;13.790;2024-03-23T11:15:05;4.27;;;1.67;;
16760;SDS011;8498;52.516;13.790;2024-03-23T11:20:31;7.33;;;1.97;;
16760;SDS011;8498;52.516;13.790;2024-03-23T11:25:53;6.27;;;1.67;;
16760;SDS011;8498;52.516;13.790;2024-03-23T11:31:14;5.33;;;1.60;;
16760;SDS011;8498;52.516;13.790;2024-03-23T11:36:36;6.60;;;1.70;;
16760;SDS011;8498;52.516;13.790;2024-03-23T11:41:57;5.63;;;1.50;;
16760;SDS011;8498;52.516;13.790;2024-03-23T11:47:18;2.93;;;1.50;;
16760;SDS011;8498;52.516;13.790;2024-03-23T11:52:39;5.50;;;1.73;;
16760;SDS011;8498;52.516;13.790;2024-03-23T11:58:01;5.77;;;1.60;;
16760;SDS011;8498;52.516;13.790;2024-03-23T12:03:24;5.20;;;1.73;;
16760;SDS011;8498;52.516;13.790;2024-03-23T12:08:53;7.57;;;3.30;;
16760;SDS011;8498;52.516;13.790;2024-03-23T12:14:14;3.87;;;2.30;;
16760;SDS011;8498;52.516;13.790;2024-03-23T12:19:35;5.13;;;1.70;;
16760;SDS011;8498;52.516;13.790;2024-03-23T12:24:56;6.73;;;2.17;;
16760;SDS011;8498;52.516;13.790;2024-03-23T12:30:18;3.23;;;1.57;;
16760;SDS011;8498;52.516;13.790;2024-03-23T12:35:40;3.43;;;2.00;;
16760;SDS011;8498;52.516;13.790;2024-03-23T12:41:01;11.53;;;2.00;;
16760;SDS011;8498;52.516;13.790;2024-03-23T12:46:26;8.10;;;2.57;;
16760;SDS011;8498;52.516;13.790;2024-03-23T12:51:49;5.20;;;2.20;;
16760;SDS011;8498;52.516;13.790;2024-03-23T12:57:16;9.33;;;2.10;;
16760;SDS011;8498;52.516;13.790;2024-03-23T13:02:38;3.87;;;1.53;;
16760;SDS011;8498;52.516;13.790;2024-03-23T13:08:01;6.30;;;2.23;;
16760;SDS011;8498;52.516;13.790;2024-03-23T13:13:22;5.07;;;2.60;;
16760;SDS011;8498;52.516;13.790;2024-03-23T13:18:43;3.03;;;1.73;;
16760;SDS011;8498;52.516;13.790;2024-03-23T13:24:04;6.23;;;2.43;;
16760;SDS011;8498;52.516;13.790;2024-03-23T13:29:25;2.73;;;1.67;;
16760;SDS011;8498;52.516;13.790;2024-03-23T13:34:46;8.53;;;1.50;;
16760;SDS011;8498;52.516;13.790;2024-03-23T13:40:11;7.60;;;2.10;;
16760;SDS011;8498;52.516;13.790;2024-03-23T13:45:32;6.20;;;1.73;;
16760;SDS011;8498;52.516;13.790;2024-03-23T13:51:00;8.33;;;1.70;;
16760;SDS011;8498;52.516;13.790;2024-03-23T13:56:23;3.77;;;1.80;;
16760;SDS011;8498;52.516;13.790;2024-03-23T14:01:44;4.63;;;1.70;;
16760;SDS011;8498;52.516;13.790;2024-03-23T14:07:06;7.53;;;2.13;;
16760;SDS011;8498;52.516;13.790;2024-03-23T14:12:28;4.63;;;2.00;;
16760;SDS011;8498;52.516;13.790;2024-03-23T14:17:49;4.37;;;1.63;;
16760;SDS011;8498;52.516;13.790;2024-03-23T14:23:10;4.73;;;2.20;;
16760;SDS011;8498;52.516;13.790;2024-03-23T14:28:31;9.87;;;2.00;;
16760;SDS011;8498;52.516;13.790;2024-03-23T14:33:52;6.10;;;2.10;;
16760;SDS011;8498;52.516;13.790;2024-03-23T14:39:14;5.73;;;2.00;;
16760;SDS011;8498;52.516;13.790;2024-03-23T14:44:36;10.77;;;3.03;;
16760;SDS011;8498;52.516;13.790;2024-03-23T14:49:57;5.13;;;2.53;;
16760;SDS011;8498;52.516;13.790;2024-03-23T14:55:19;10.67;;;2.50;;
16760;SDS011;8498;52.516;13.790;2024-03-23T15:00:40;6.40;;;2.73;;
16760;SDS011;8498;52.516;13.790;2024-03-23T15:06:01;5.47;;;1.90;;
16760;SDS011;8498;52.516;13.790;2024-03-23T15:11:23;9.40;;;1.50;;
16760;SDS011;8498;52.516;13.790;2024-03-23T15:16:44;4.47;;;1.70;;
16760;SDS011;8498;52.516;13.790;2024-03-23T15:22:08;3.10;;;1.40;;
16760;SDS011;8498;52.516;13.790;2024-03-23T15:27:30;4.43;;;1.97;;
16760;SDS011;8498;52.516;13.790;2024-03-23T15:32:51;9.47;;;2.20;;
16760;SDS011;8498;52.516;13.790;2024-03-23T15:38:13;4.73;;;2.50;;
16760;SDS011;8498;52.516;13.790;2024-03-23T15:43:34;3.90;;;1.70;;
16760;SDS011;8498;52.516;13.790;2024-03-23T15:48:55;2.40;;;1.80;;
16760;SDS011;8498;52.516;13.790;2024-03-23T15:54:17;7.30;;;1.83;;
16760;SDS011;8498;52.516;13.790;2024-03-23T15:59:40;1.43;;;1.33;;
16760;SDS011;8498;52.516;13.790;2024-03-23T16:05:01;1.47;;;1.37;;
16760;SDS011;8498;52.516;13.790;2024-03-23T16:10:24;1.47;;;1.20;;
16760;SDS011;8498;52.516;13.790;2024-03-23T16:15:45;5.97;;;2.43;;
16760;SDS011;8498;52.516;13.790;2024-03-23T16:21:16;2.03;;;1.90;;
16760;SDS011;8498;52.516;13.790;2024-03-23T16:26:38;6.60;;;1.80;;
16760;SDS011;8498;52.516;13.790;2024-03-23T16:31:59;1.87;;;1.70;;
16760;SDS011;8498;52.516;13.790;2024-03-23T16:37:21;3.37;;;1.80;;
16760;SDS011;8498;52.516;13.790;2024-03-23T16:42:42;3.63;;;2.20;;
16760;SDS011;8498;52.516;13.790;2024-03-23T16:48:04;6.57;;;2.90;;
16760;SDS011;8498;52.516;13.790;2024-03-23T16:53:26;5.77;;;2.57;;
16760;SDS011;8498;52.516;13.790;2024-03-23T16:58:47;7.07;;;2.80;;
16760;SDS011;8498;52.516;13.790;2024-03-23T17:04:10;5.43;;;2.43;;
16760;SDS011;8498;52.516;13.790;2024-03-23T17:09:31;6.93;;;2.50;;
16760;SDS011;8498;52.516;13.790;2024-03-23T17:14:52;4.93;;;2.40;;
16760;SDS011;8498;52.516;13.790;2024-03-23T17:20:14;6.03;;;2.13;;
16760;SDS011;8498;52.516;13.790;2024-03-23T17:25:35;6.33;;;2.67;;
16760;SDS011;8498;52.516;13.790;2024-03-23T17:30:57;5.50;;;2.50;;
16760;SDS011;8498;52.516;13.790;2024-03-23T17:36:18;7.37;;;2.40;;
16760;SDS011;8498;52.516;13.790;2024-03-23T17:41:47;7.50;;;2.93;;
16760;SDS011;8498;52.516;13.790;2024-03-23T17:47:08;12.70;;;3.60;;
16760;SDS011;8498;52.516;13.790;2024-03-23T17:52:29;7.33;;;2.53;;
16760;SDS011;8498;52.516;13.790;2024-03-23T17:57:50;6.13;;;2.40;;
16760;SDS011;8498;52.516;13.790;2024-03-23T18:03:13;3.70;;;2.30;;
16760;SDS011;8498;52.516;13.790;2024-03-23T18:08:35;7.23;;;3.00;;
16760;SDS011;8498;52.516;13.790;2024-03-23T18:13:56;8.10;;;2.63;;
16760;SDS011;8498;52.516;13.790;2024-03-23T18:19:18;4.37;;;2.30;;
16760;SDS011;8498;52.516;13.790;2024-03-23T18:24:39;4.77;;;2.40;;
16760;SDS011;8498;52.516;13.790;2024-03-23T18:30:01;9.23;;;2.23;;
16760;SDS011;8498;52.516;13.790;2024-03-23T18:35:24;5.83;;;3.30;;
16760;SDS011;8498;52.516;13.790;2024-03-23T18:40:46;5.53;;;3.00;;
16760;SDS011;8498;52.516;13.790;2024-03-23T18:46:07;3.17;;;2.40;;
16760;SDS011;8498;52.516;13.790;2024-03-23T18:51:29;8.80;;;3.23;;
16760;SDS011;8498;52.516;13.790;2024-03-23T18:56:51;6.17;;;2.50;;
16760;SDS011;8498;52.516;13.790;2024-03-23T19:02:12;8.07;;;3.90;;
16760;SDS011;8498;52.516;13.790;2024-03-23T19:07:33;10.57;;;4.10;;
16760;SDS011;8498;52.516;13.790;2024-03-23T19:12:55;7.90;;;3.23;;
16760;SDS011;8498;52.516;13.790;2024-03-23T19:18:17;5.80;;;2.90;;
16760;SDS011;8498;52.516;13.790;2024-03-23T19:23:39;4.20;;;3.13;;
16760;SDS011;8498;52.516;13.790;2024-03-23T19:29:01;6.33;;;3.57;;
16760;SDS011;8498;52.516;13.790;2024-03-23T19:34:23;7.27;;;2.80;;
16760;SDS011;8498;52.516;13.790;2024-03-23T19:39:44;1.70;;;1.60;;
16760;SDS011;8498;52.516;13.790;2024-03-23T19:45:05;3.17;;;1.80;;
16760;SDS011;8498;52.516;13.790;2024-03-23T19:50:27;3.23;;;1.97;;
16760;SDS011;8498;52.516;13.790;2024-03-23T19:55:55;5.77;;;1.70;;
16760;SDS011;8498;52.516;13.790;2024-03-23T20:01:17;5.37;;;2.13;;
16760;SDS011;8498;52.516;13.790;2024-03-23T20:06:42;4.93;;;2.43;;
16760;SDS011;8498;52.516;13.790;2024-03-23T20:12:03;5.03;;;2.57;;
16760;SDS011;8498;52.516;13.790;2024-03-23T20:17:25;6.53;;;2.67;;
16760;SDS011;8498;52.516;13.790;2024-03-23T20:22:49;6.43;;;2.63;;
16760;SDS011;8498;52.516;13.790;2024-03-23T20:28:10;6.00;;;2.53;;
16760;SDS011;8498;52.516;13.790;2024-03-23T20:33:31;4.47;;;2.77;;
16760;SDS011;8498;52.516;13.790;2024-03-23T20:38:52;3.50;;;1.90;;
16760;SDS011;8498;52.516;13.790;2024-03-23T20:44:14;3.43;;;1.67;;
16760;SDS011;8498;52.516;13.790;2024-03-23T20:49:36;2.30;;;2.10;;
16760;SDS011;8498;52.516;13.790;2024-03-23T20:54:57;4.27;;;2.20;;
16760;SDS011;8498;52.516;13.790;2024-03-23T21:00:21;3.73;;;1.60;;
16760;SDS011;8498;52.516;13.790;2024-03-23T21:05:42;2.37;;;1.67;;
16760;SDS011;8498;52.516;13.790;2024-03-23T21:11:05;3.63;;;2.00;;
16760;SDS011;8498;52.516;13.790;2024-03-23T21:16:28;3.73;;;1.90;;
16760;SDS011;8498;52.516;13.790;2024-03-23T21:21:49;2.90;;;1.77;;
16760;SDS011;8498;52.516;13.790;2024-03-23T21:27:10;2.83;;;2.10;;
16760;SDS011;8498;52.516;13.790;2024-03-23T21:32:31;8.30;;;2.30;;
16760;SDS011;8498;52.516;13.790;2024-03-23T21:37:53;3.57;;;2.23;;
16760;SDS011;8498;52.516;13.790;2024-03-23T21:43:14;8.43;;;2.20;;
16760;SDS011;8498;52.516;13.790;2024-03-23T21:48:35;2.80;;;2.07;;
16760;SDS011;8498;52.516;13.790;2024-03-23T21:53:56;7.13;;;2.70;;
16760;SDS011;8498;52.516;13.790;2024-03-23T21:59:18;2.43;;;2.23;;
16760;SDS011;8498;52.516;13.790;2024-03-23T22:04:39;3.67;;;2.80;;
16760;SDS011;8498;52.516;13.790;2024-03-23T22:10:01;7.70;;;2.37;;
16760;SDS011;8498;52.516;13.790;2024-03-23T22:15:22;5.73;;;2.63;;
16760;SDS011;8498;52.516;13.790;2024-03-23T22:20:43;4.53;;;2.60;;
16760;SDS011;8498;52.516;13.790;2024-03-23T22:26:05;5.13;;;2.93;;
16760;SDS011;8498;52.516;13.790;2024-03-23T22:31:27;3.67;;;2.70;;
16760;SDS011;8498;52.516;13.790;2024-03-23T22:36:48;6.83;;;3.00;;
16760;SDS011;8498;52.516;13.790;2024-03-23T22:42:09;5.17;;;2.37;;
16760;SDS011;8498;52.516;13.790;2024-03-23T22:47:31;4.67;;;2.67;;
16760;SDS011;8498;52.516;13.790;2024-03-23T22:52:52;5.07;;;3.00;;
16760;SDS011;8498;52.516;13.790;2024-03-23T22:58:13;4.97;;;3.13;;
16760;SDS011;8498;52.516;13.790;2024-03-23T23:03:35;4.37;;;2.90;;
16760;SDS011;8498;52.516;13.790;2024-03-23T23:08:56;3.97;;;2.93;;
16760;SDS011;8498;52.516;13.790;2024-03-23T23:14:17;3.83;;;2.80;;
16760;SDS011;8498;52.516;13.790;2024-03-23T23:19:39;7.67;;;3.07;;
16760;SDS011;8498;52.516;13.790;2024-03-23T23:25:01;3.27;;;2.80;;
16760;SDS011;8498;52.516;13.790;2024-03-23T23:30:22;6.33;;;3.87;;
16760;SDS011;8498;52.516;13.790;2024-03-23T23:35:43;4.13;;;2.80;;
16760;SDS011;8498;52.516;13.790;2024-03-23T23:41:04;3.80;;;2.80;;
16760;SDS011;8498;52.516;13.790;2024-03-23T23:46:25;3.07;;;2.60;;
16760;SDS011;8498;52.516;13.790;2024-03-23T23:51:48;7.00;;;3.17;;
16760;SDS011;8498;52.516;13.790;2024-03-23T23:57:09;5.30;;;3.03;;
